Time;durP1;ratioP1;P1;durP2;ratioP2;P2;SDS_P1;SDS_P2;PMS_P1;PMS_P2;Temp;Humidity;BMP_temperature;BMP_pressure;BME280_temperature;BME280_humidity;BME280_pressure;Samples;Min_cycle;Max_cycle;Signal;HPM_P1;HPM_P2
2022/04/11 00:01:32;;;;;;;;;;;8.80;63.80;;;;;;5088278;28;19904;-65
2022/04/11 00:03:58;;;;;;;;;;;8.80;63.60;;;;;;5098613;28;19915;-65
2022/04/11 00:06:24;;;;;;;;;;;8.80;63.50;;;;;;5098965;28;19916;-65
2022/04/11 00:08:50;;;;;;;;;;;8.70;63.30;;;;;;5098559;28;19908;-65
2022/04/11 00:11:15;;;;;;;;;;;8.70;63.50;;;;;;5098621;28;19915;-65
2022/04/11 00:13:41;;;;;;;;;;;8.70;63.80;;;;;;5084901;28;19908;-65
2022/04/11 00:16:07;;;;;;;;;;;8.70;63.60;;;;;;5098491;28;19908;-65
2022/04/11 00:18:33;;;;;;;;;;;8.70;64.10;;;;;;5098096;28;20416;-65
2022/04/11 00:20:59;;;;;;;;;;;8.70;63.70;;;;;;5098510;28;20326;-65
2022/04/11 00:23:25;;;;;;;;;;;8.70;64.10;;;;;;5098307;28;19985;-65
2022/04/11 00:25:51;;;;;;;;;;;8.70;64.60;;;;;;5098001;28;19908;-65
2022/04/11 00:28:16;;;;;;;;;;;8.70;64.00;;;;;;5098254;28;19923;-65
2022/04/11 00:30:42;;;;;;;;;;;8.70;64.10;;;;;;5098066;28;20400;-65
2022/04/11 00:33:08;;;;;;;;;;;8.70;64.00;;;;;;5117623;28;19920;-65
2022/04/11 00:35:33;;;;;;;;;;;8.70;64.30;;;;;;5118898;28;19907;-65
2022/04/11 00:37:59;;;;;;;;;;;8.70;64.70;;;;;;5118503;28;19912;-65
2022/04/11 00:40:25;;;;;;;;;;;8.70;64.80;;;;;;5112284;28;20006;-65
2022/04/11 00:42:51;;;;;;;;;;;8.70;64.50;;;;;;5118371;28;19908;-65
2022/04/11 00:45:16;;;;;;;;;;;8.70;64.80;;;;;;5118408;28;20376;-65
2022/04/11 00:47:42;;;;;;;;;;;8.70;64.40;;;;;;5118325;28;19912;-65
2022/04/11 00:50:09;;;;;;;;;;;8.70;64.50;;;;;;5118281;28;19912;-65
2022/04/11 00:52:39;;;;;;;;;;;8.70;64.30;;;;;;5117950;28;19912;-65
2022/04/11 00:55:07;;;;;;;;;;;8.70;64.10;;;;;;5117662;28;19912;-65
2022/04/11 00:57:33;;;;;;;;;;;8.70;64.40;;;;;;5117658;28;19919;-65
2022/04/11 00:59:59;;;;;;;;;;;8.70;64.20;;;;;;5117604;28;19912;-65
2022/04/11 01:02:25;;;;;;;;;;;8.60;64.20;;;;;;5117392;28;20362;-65
2022/04/11 01:04:51;;;;;;;;;;;8.60;64.20;;;;;;5119384;28;19911;-65
2022/04/11 01:07:16;;;;;;;;;;;8.60;64.50;;;;;;5122422;28;19919;-65
2022/04/11 01:09:42;;;;;;;;;;;8.60;64.30;;;;;;5121795;28;19947;-65
2022/04/11 01:12:08;;;;;;;;;;;8.60;64.30;;;;;;5110018;28;19958;-65
2022/04/11 01:14:33;;;;;;;;;;;8.60;65.00;;;;;;5101482;28;20003;-65
2022/04/11 01:16:59;;;;;;;;;;;8.60;64.70;;;;;;5120549;28;19943;-65
2022/04/11 01:19:25;;;;;;;;;;;8.50;64.80;;;;;;5122402;28;19907;-65
2022/04/11 01:21:51;;;;;;;;;;;8.50;64.50;;;;;;5122244;28;19908;-65
2022/04/11 01:24:22;;;;;;;;;;;8.50;64.70;;;;;;5122389;28;19915;-65
2022/04/11 01:26:49;;;;;;;;;;;8.50;64.50;;;;;;5109018;28;19912;-65
2022/04/11 01:29:16;;;;;;;;;;;8.40;64.20;;;;;;5114276;28;19912;-65
2022/04/11 01:31:42;;;;;;;;;;;8.40;64.50;;;;;;5121502;28;19919;-65
2022/04/11 01:34:07;;;;;;;;;;;8.40;64.50;;;;;;5122175;28;19971;-65
2022/04/11 01:36:33;;;;;;;;;;;8.40;64.80;;;;;;5121875;28;19907;-65
2022/04/11 01:38:59;;;;;;;;;;;8.40;64.70;;;;;;5119693;28;19908;-65
2022/04/11 01:41:24;;;;;;;;;;;8.40;64.60;;;;;;5121585;28;19908;-65
2022/04/11 01:43:50;;;;;;;;;;;8.30;64.90;;;;;;5117822;28;20280;-65
2022/04/11 01:46:16;;;;;;;;;;;8.30;64.50;;;;;;5121517;28;19912;-65
2022/04/11 01:48:41;;;;;;;;;;;8.30;64.80;;;;;;5121967;28;19933;-65
2022/04/11 01:51:07;;;;;;;;;;;8.30;65.40;;;;;;5121883;28;19907;-65
2022/04/11 01:53:33;;;;;;;;;;;8.30;65.20;;;;;;5121788;28;19907;-65
2022/04/11 01:55:58;;;;;;;;;;;8.30;65.00;;;;;;5121519;28;19953;-65
2022/04/11 01:58:24;;;;;;;;;;;8.30;64.90;;;;;;5121435;28;19956;-65
2022/04/11 02:00:50;;;;;;;;;;;8.20;64.60;;;;;;5120658;28;20400;-65
2022/04/11 02:03:16;;;;;;;;;;;8.20;65.10;;;;;;5120381;28;19916;-65
2022/04/11 02:05:42;;;;;;;;;;;8.20;65.60;;;;;;5120655;28;19911;-65
2022/04/11 02:08:10;;;;;;;;;;;8.20;65.20;;;;;;5120970;28;19942;-65
2022/04/11 02:10:36;;;;;;;;;;;8.10;65.30;;;;;;5120901;28;19915;-65
2022/04/11 02:13:03;;;;;;;;;;;8.10;65.70;;;;;;5119818;28;20306;-65
2022/04/11 02:15:28;;;;;;;;;;;8.10;66.00;;;;;;5119684;28;20373;-65
2022/04/11 02:17:54;;;;;;;;;;;8.10;65.70;;;;;;5120334;28;19912;-65
2022/04/11 02:20:20;;;;;;;;;;;8.10;66.10;;;;;;5120502;28;20385;-65
2022/04/11 02:22:50;;;;;;;;;;;8.00;66.00;;;;;;5120601;28;20334;-65
2022/04/11 02:25:16;;;;;;;;;;;8.00;66.10;;;;;;5116910;28;19919;-65
2022/04/11 02:27:42;;;;;;;;;;;8.00;66.10;;;;;;5116194;28;19916;-65
2022/04/11 02:30:08;;;;;;;;;;;8.00;66.10;;;;;;5120000;28;19965;-65
2022/04/11 02:32:34;;;;;;;;;;;8.00;66.50;;;;;;5089487;28;19956;-64
2022/04/11 02:35:00;;;;;;;;;;;7.90;66.10;;;;;;5079677;28;19916;-65
2022/04/11 02:37:25;;;;;;;;;;;7.90;66.30;;;;;;5080304;28;19917;-65
2022/04/11 02:39:51;;;;;;;;;;;7.90;66.50;;;;;;5078941;28;20263;-65
2022/04/11 02:42:21;;;;;;;;;;;7.90;66.40;;;;;;5080290;28;20344;-65
2022/04/11 02:44:47;;;;;;;;;;;7.80;66.50;;;;;;5079817;28;20358;-65
2022/04/11 02:47:12;;;;;;;;;;;7.80;66.70;;;;;;5061609;28;19913;-65
2022/04/11 02:49:38;;;;;;;;;;;7.80;66.70;;;;;;5079640;28;19977;-65
2022/04/11 02:52:04;;;;;;;;;;;7.80;66.90;;;;;;5079990;28;19912;-65
2022/04/11 02:54:30;;;;;;;;;;;7.70;66.70;;;;;;5079692;28;19919;-65
2022/04/11 02:56:55;;;;;;;;;;;7.70;67.40;;;;;;5079804;28;19912;-64
2022/04/11 02:59:21;;;;;;;;;;;7.70;67.50;;;;;;5079660;28;19935;-65
2022/04/11 03:01:46;;;;;;;;;;;7.70;67.60;;;;;;5079606;28;19943;-65
2022/04/11 03:04:12;;;;;;;;;;;7.70;67.80;;;;;;5079577;28;19992;-64
2022/04/11 03:06:38;;;;;;;;;;;7.70;67.80;;;;;;5079268;28;19923;-65
2022/04/11 03:09:03;;;;;;;;;;;7.70;67.70;;;;;;5078613;28;19913;-65
2022/04/11 03:11:29;;;;;;;;;;;7.60;67.40;;;;;;5079142;28;20377;-65
2022/04/11 03:13:55;;;;;;;;;;;7.60;67.40;;;;;;5070826;28;19909;-65
2022/04/11 03:16:20;;;;;;;;;;;7.60;68.20;;;;;;5078788;28;19913;-65
2022/04/11 03:18:46;;;;;;;;;;;7.60;68.00;;;;;;5078989;28;20278;-65
2022/04/11 03:21:11;;;;;;;;;;;7.60;68.20;;;;;;5078397;28;19920;-65
2022/04/11 03:23:37;;;;;;;;;;;7.50;67.80;;;;;;5078641;28;19909;-65
2022/04/11 03:26:02;;;;;;;;;;;7.60;68.10;;;;;;5088530;28;19920;-65
2022/04/11 03:28:28;;;;;;;;;;;7.50;67.90;;;;;;5080223;28;19912;-65
2022/04/11 03:30:54;;;;;;;;;;;7.50;67.90;;;;;;5079654;28;20371;-65
2022/04/11 03:33:19;;;;;;;;;;;7.50;68.40;;;;;;5118209;28;19939;-65
2022/04/11 03:35:45;;;;;;;;;;;7.50;68.00;;;;;;5119363;28;19947;-64
2022/04/11 03:38:10;;;;;;;;;;;7.50;68.50;;;;;;5119265;28;19919;-65
2022/04/11 03:40:36;;;;;;;;;;;7.50;69.20;;;;;;5101155;28;19918;-64
2022/04/11 03:43:02;;;;;;;;;;;7.50;68.70;;;;;;5116115;28;19912;-65
2022/04/11 03:45:27;;;;;;;;;;;7.50;68.50;;;;;;5118773;28;19919;-65
2022/04/11 03:47:53;;;;;;;;;;;7.50;68.10;;;;;;5112626;28;19915;-65
2022/04/11 03:50:18;;;;;;;;;;;7.50;68.80;;;;;;5104781;28;19912;-65
2022/04/11 03:52:44;;;;;;;;;;;7.50;68.70;;;;;;5113144;28;19960;-66
2022/04/11 03:55:10;;;;;;;;;;;7.50;68.60;;;;;;5112140;28;19908;-65
2022/04/11 03:57:36;;;;;;;;;;;7.50;68.40;;;;;;5114662;28;20431;-65
2022/04/11 04:00:01;;;;;;;;;;;7.40;68.50;;;;;;5109407;28;19908;-65
2022/04/11 04:02:27;;;;;;;;;;;7.40;68.30;;;;;;5119088;28;19927;-65
2022/04/11 04:04:53;;;;;;;;;;;7.40;68.60;;;;;;5117491;28;19929;-65
2022/04/11 04:07:18;;;;;;;;;;;7.40;68.80;;;;;;5118918;28;19911;-65
2022/04/11 04:09:44;;;;;;;;;;;7.30;68.70;;;;;;5114601;28;19908;-65
2022/04/11 04:12:10;;;;;;;;;;;7.30;68.60;;;;;;5111201;28;19911;-65
2022/04/11 04:14:36;;;;;;;;;;;7.30;68.80;;;;;;5118739;28;19918;-65
2022/04/11 04:17:02;;;;;;;;;;;7.30;69.00;;;;;;5118493;28;19930;-65
2022/04/11 04:19:28;;;;;;;;;;;7.20;69.10;;;;;;5118684;28;19935;-65
2022/04/11 04:21:53;;;;;;;;;;;7.30;69.60;;;;;;5107614;28;19912;-65
2022/04/11 04:24:22;;;;;;;;;;;7.30;69.50;;;;;;5117727;28;20366;-65
2022/04/11 04:26:48;;;;;;;;;;;7.20;69.50;;;;;;5118410;28;20013;-65
2022/04/11 04:29:16;;;;;;;;;;;7.20;69.50;;;;;;5118156;28;19908;-65
2022/04/11 04:31:42;;;;;;;;;;;7.20;70.10;;;;;;5105886;28;19921;-65
2022/04/11 04:34:08;;;;;;;;;;;7.20;69.80;;;;;;5071406;28;19912;-65
2022/04/11 04:36:34;;;;;;;;;;;7.20;69.70;;;;;;5086938;28;19962;-64
2022/04/11 04:39:01;;;;;;;;;;;7.10;70.10;;;;;;5084505;28;19944;-65
2022/04/11 04:41:26;;;;;;;;;;;7.10;70.00;;;;;;5088422;28;19912;-65
2022/04/11 04:43:52;;;;;;;;;;;7.10;70.00;;;;;;5095123;28;19965;-65
2022/04/11 04:46:17;;;;;;;;;;;7.10;70.40;;;;;;5087068;28;19916;-65
2022/04/11 04:48:43;;;;;;;;;;;7.10;70.10;;;;;;5090757;28;20328;-65
2022/04/11 04:51:10;;;;;;;;;;;7.10;70.10;;;;;;5088125;28;20111;-65
2022/04/11 04:53:36;;;;;;;;;;;7.00;70.10;;;;;;5084503;28;19912;-65
2022/04/11 04:56:01;;;;;;;;;;;7.10;70.30;;;;;;5086128;28;19913;-65
2022/04/11 04:58:27;;;;;;;;;;;7.00;70.30;;;;;;5089607;28;20007;-65
2022/04/11 05:00:52;;;;;;;;;;;7.00;70.60;;;;;;5086623;28;20278;-65
2022/04/11 05:03:18;;;;;;;;;;;7.00;70.80;;;;;;5087397;28;19919;-66
2022/04/11 05:05:44;;;;;;;;;;;7.00;70.90;;;;;;5092185;28;19912;-65
2022/04/11 05:08:09;;;;;;;;;;;7.10;71.60;;;;;;5082208;28;19924;-66
2022/04/11 05:10:35;;;;;;;;;;;7.10;72.00;;;;;;5086752;28;19909;-66
2022/04/11 05:13:01;;;;;;;;;;;7.10;71.40;;;;;;5090759;28;19913;-66
2022/04/11 05:15:26;;;;;;;;;;;7.10;71.70;;;;;;5087225;28;19912;-66
2022/04/11 05:17:53;;;;;;;;;;;7.20;71.40;;;;;;5090219;28;19916;-66
2022/04/11 05:20:18;;;;;;;;;;;7.20;71.10;;;;;;5083526;28;19954;-66
2022/04/11 05:22:44;;;;;;;;;;;7.20;71.30;;;;;;5090518;28;19913;-66
2022/04/11 05:25:10;;;;;;;;;;;7.20;71.40;;;;;;5060565;28;20379;-66
2022/04/11 05:27:35;;;;;;;;;;;7.20;71.50;;;;;;5090743;28;20286;-68
2022/04/11 05:30:01;;;;;;;;;;;7.20;71.20;;;;;;5066917;28;19963;-71
2022/04/11 05:32:27;;;;;;;;;;;7.20;71.20;;;;;;5097378;28;19939;-67
2022/04/11 05:34:52;;;;;;;;;;;7.10;71.30;;;;;;5111985;28;20003;-68
2022/04/11 05:37:18;;;;;;;;;;;7.10;71.00;;;;;;5100417;28;20015;-67
2022/04/11 05:39:43;;;;;;;;;;;7.10;70.90;;;;;;5107400;28;19913;-67
2022/04/11 05:42:09;;;;;;;;;;;7.10;70.70;;;;;;5104271;28;20440;-68
2022/04/11 05:44:35;;;;;;;;;;;7.10;71.30;;;;;;5116522;28;19918;-65
2022/04/11 05:47:00;;;;;;;;;;;7.10;70.90;;;;;;5117284;28;19946;-74
2022/04/11 05:49:26;;;;;;;;;;;7.00;70.80;;;;;;5089217;28;19933;-68
2022/04/11 05:51:52;;;;;;;;;;;7.10;71.30;;;;;;5101705;28;19909;-67
2022/04/11 05:54:17;;;;;;;;;;;7.00;71.10;;;;;;5106705;28;19931;-67
2022/04/11 05:56:43;;;;;;;;;;;7.10;71.30;;;;;;5097379;28;19912;-67
2022/04/11 05:59:08;;;;;;;;;;;7.10;71.70;;;;;;5101091;28;19908;-67
2022/04/11 06:01:40;;;;;;;;;;;7.10;71.80;;;;;;5100769;28;19908;-67
2022/04/11 06:04:05;;;;;;;;;;;7.10;71.40;;;;;;5101149;28;19912;-70
2022/04/11 06:06:31;;;;;;;;;;;7.10;71.20;;;;;;5101027;28;20396;-70
2022/04/11 06:08:57;;;;;;;;;;;7.20;71.30;;;;;;5100155;28;19958;-67
2022/04/11 06:11:22;;;;;;;;;;;7.20;71.30;;;;;;5093791;28;20326;-68
2022/04/11 06:13:48;;;;;;;;;;;7.20;71.80;;;;;;5091842;28;19995;-68
2022/04/11 06:16:14;;;;;;;;;;;7.30;71.60;;;;;;5100189;28;20011;-68
2022/04/11 06:18:40;;;;;;;;;;;7.30;71.50;;;;;;5099766;28;19916;-68
2022/04/11 06:21:05;;;;;;;;;;;7.30;71.50;;;;;;5098934;28;19919;-68
2022/04/11 06:23:31;;;;;;;;;;;7.40;71.70;;;;;;5104420;28;19912;-68
2022/04/11 06:25:57;;;;;;;;;;;7.40;71.40;;;;;;5082358;28;19978;-68
2022/04/11 06:28:22;;;;;;;;;;;7.50;71.00;;;;;;5091278;28;19963;-68
2022/04/11 06:30:48;;;;;;;;;;;7.50;71.00;;;;;;5104976;28;20289;-68
2022/04/11 06:33:14;;;;;;;;;;;7.60;70.70;;;;;;5093806;28;19920;-69
2022/04/11 06:35:40;;;;;;;;;;;7.70;71.20;;;;;;5090371;28;19916;-68
2022/04/11 06:38:05;;;;;;;;;;;7.70;70.80;;;;;;5096005;28;19920;-69
2022/04/11 06:40:31;;;;;;;;;;;7.70;70.30;;;;;;5073724;28;19927;-68
2022/04/11 06:42:57;;;;;;;;;;;7.80;70.80;;;;;;5086936;28;19919;-68
2022/04/11 06:45:22;;;;;;;;;;;7.80;70.90;;;;;;5074748;28;19912;-68
2022/04/11 06:47:48;;;;;;;;;;;7.80;70.60;;;;;;5081460;28;19912;-67
2022/04/11 06:50:14;;;;;;;;;;;7.90;70.90;;;;;;5084037;28;19979;-68
2022/04/11 06:52:40;;;;;;;;;;;7.90;70.60;;;;;;5090713;28;19920;-68
2022/04/11 06:55:06;;;;;;;;;;;8.00;70.70;;;;;;5092712;28;20282;-68
2022/04/11 06:57:32;;;;;;;;;;;8.10;70.40;;;;;;5089180;28;19919;-68
2022/04/11 06:59:57;;;;;;;;;;;8.20;70.50;;;;;;5094713;28;19919;-69
2022/04/11 07:02:23;;;;;;;;;;;8.30;70.10;;;;;;5079923;28;19917;-69
2022/04/11 07:04:48;;;;;;;;;;;8.40;70.20;;;;;;5091826;28;20830;-68
2022/04/11 07:07:14;;;;;;;;;;;8.40;70.20;;;;;;5081675;28;19928;-69
2022/04/11 07:09:40;;;;;;;;;;;8.50;70.10;;;;;;5099161;28;20404;-68
2022/04/11 07:12:06;;;;;;;;;;;8.60;70.30;;;;;;5098710;28;19923;-68
2022/04/11 07:14:31;;;;;;;;;;;8.60;70.00;;;;;;5090345;28;19916;-68
2022/04/11 07:16:57;;;;;;;;;;;8.70;70.30;;;;;;5099043;28;20288;-68
2022/04/11 07:19:23;;;;;;;;;;;8.70;69.70;;;;;;5086676;28;19937;-68
2022/04/11 07:21:48;;;;;;;;;;;8.80;69.60;;;;;;5086245;28;19913;-68
2022/04/11 07:24:14;;;;;;;;;;;8.80;69.50;;;;;;5085914;28;19923;-68
2022/04/11 07:26:42;;;;;;;;;;;8.80;69.40;;;;;;5089822;28;20057;-68
2022/04/11 07:29:08;;;;;;;;;;;9.00;69.50;;;;;;5089849;28;19916;-68
2022/04/11 07:31:34;;;;;;;;;;;9.10;69.40;;;;;;5088478;28;20394;-68
2022/04/11 07:34:01;;;;;;;;;;;9.30;69.60;;;;;;5090733;28;19915;-68
2022/04/11 07:36:28;;;;;;;;;;;9.70;70.00;;;;;;5085447;28;20285;-68
2022/04/11 07:38:55;;;;;;;;;;;10.30;69.70;;;;;;5087633;28;19917;-69
2022/04/11 07:41:20;;;;;;;;;;;10.90;67.90;;;;;;5083692;28;19912;-69
2022/04/11 07:43:46;;;;;;;;;;;11.40;67.70;;;;;;5088768;28;19950;-69
2022/04/11 07:46:12;;;;;;;;;;;11.90;68.10;;;;;;5086890;28;20390;-69
2022/04/11 07:48:37;;;;;;;;;;;12.30;67.90;;;;;;5091740;28;19913;-69
2022/04/11 07:51:03;;;;;;;;;;;12.90;66.30;;;;;;5063167;28;19919;-69
2022/04/11 07:53:29;;;;;;;;;;;13.30;63.80;;;;;;5082251;28;20309;-69
2022/04/11 07:55:54;;;;;;;;;;;13.50;64.00;;;;;;5087930;28;20433;-69
2022/04/11 07:58:20;;;;;;;;;;;13.80;64.70;;;;;;5081512;28;19916;-69
2022/04/11 08:00:50;;;;;;;;;;;14.20;63.80;;;;;;5081945;28;19908;-68
2022/04/11 08:03:17;;;;;;;;;;;14.60;62.70;;;;;;5091590;28;19920;-68
2022/04/11 08:05:43;;;;;;;;;;;15.00;61.00;;;;;;5089516;28;19912;-69
2022/04/11 08:08:08;;;;;;;;;;;15.50;61.60;;;;;;5084998;28;19957;-69
2022/04/11 08:10:34;;;;;;;;;;;15.80;59.00;;;;;;5086616;28;19948;-68
2022/04/11 08:13:01;;;;;;;;;;;15.80;58.60;;;;;;5090928;28;19913;-75
2022/04/11 08:15:29;;;;;;;;;;;15.70;58.20;;;;;;5088669;28;19915;-72
2022/04/11 08:17:55;;;;;;;;;;;15.80;57.90;;;;;;5066554;28;20290;-70
2022/04/11 08:20:21;;;;;;;;;;;16.00;58.80;;;;;;5085834;28;19920;-71
2022/04/11 08:22:46;;;;;;;;;;;16.40;57.10;;;;;;5090525;28;19912;-71
2022/04/11 08:25:12;;;;;;;;;;;16.80;55.30;;;;;;5083065;28;19952;-71
2022/04/11 08:27:38;;;;;;;;;;;16.90;54.70;;;;;;5094406;28;19919;-72
2022/04/11 08:30:04;;;;;;;;;;;17.30;55.50;;;;;;5085057;28;20302;-71
2022/04/11 08:32:37;;;;;;;;;;;17.80;54.70;;;;;;5092049;28;19966;-72
2022/04/11 08:35:03;;;;;;;;;;;18.40;53.90;;;;;;5083962;28;19912;-72
2022/04/11 08:37:29;;;;;;;;;;;18.90;55.10;;;;;;5096066;28;19981;-72
2022/04/11 08:39:54;;;;;;;;;;;19.50;54.90;;;;;;5065507;28;19913;-72
2022/04/11 08:42:23;;;;;;;;;;;20.20;53.80;;;;;;5088989;28;19923;-71
2022/04/11 08:44:51;;;;;;;;;;;20.70;51.20;;;;;;5084893;28;19912;-71
2022/04/11 08:47:17;;;;;;;;;;;21.10;50.20;;;;;;5083912;28;19909;-70
2022/04/11 08:49:43;;;;;;;;;;;21.00;49.00;;;;;;5083929;28;20363;-70
2022/04/11 08:52:08;;;;;;;;;;;21.00;48.70;;;;;;5085560;28;20022;-70
2022/04/11 08:54:35;;;;;;;;;;;21.00;49.10;;;;;;5083402;28;19952;-71
2022/04/11 08:57:00;;;;;;;;;;;21.00;48.90;;;;;;5077368;28;19916;-73
2022/04/11 08:59:26;;;;;;;;;;;21.20;49.10;;;;;;5089666;28;20271;-71
2022/04/11 09:01:52;;;;;;;;;;;21.50;47.60;;;;;;5083811;28;19938;-70
2022/04/11 09:04:17;;;;;;;;;;;21.70;48.40;;;;;;5088128;28;19912;-71
2022/04/11 09:06:53;;;;;;;;;;;21.90;48.80;;;;;;5090784;28;19912;-71
2022/04/11 09:09:35;;;;;;;;;;;22.30;48.70;;;;;;5090508;28;19916;-71
2022/04/11 09:12:02;;;;;;;;;;;22.70;48.00;;;;;;5086384;28;19919;-71
2022/04/11 09:14:28;;;;;;;;;;;23.40;47.70;;;;;;5067705;28;20394;-71
2022/04/11 09:16:54;;;;;;;;;;;23.90;48.40;;;;;;5087608;28;19916;-71
2022/04/11 09:19:21;;;;;;;;;;;24.30;46.40;;;;;;5080105;28;19975;-72
2022/04/11 09:21:46;;;;;;;;;;;24.60;46.70;;;;;;5091334;28;19912;-71
2022/04/11 09:24:13;;;;;;;;;;;24.90;46.30;;;;;;5094622;28;19920;-71
2022/04/11 09:26:40;;;;;;;;;;;25.10;44.70;;;;;;5090588;28;20431;-71
2022/04/11 09:29:06;;;;;;;;;;;25.20;45.00;;;;;;5090524;28;19924;-71
2022/04/11 09:31:32;;;;;;;;;;;25.20;44.80;;;;;;5095924;28;19965;-71
2022/04/11 09:34:18;;;;;;;;;;;25.50;45.70;;;;;;5115453;28;19923;-71
2022/04/11 09:36:50;;;;;;;;;;;25.80;46.20;;;;;;5100974;28;19943;-70
2022/04/11 09:39:19;;;;;;;;;;;26.20;46.00;;;;;;5113814;28;21714;-70
2022/04/11 09:41:46;;;;;;;;;;;26.40;44.60;;;;;;5118857;28;19912;-71
2022/04/11 09:44:21;;;;;;;;;;;26.50;45.70;;;;;;5118041;28;19920;-71
2022/04/11 09:46:47;;;;;;;;;;;26.90;43.20;;;;;;5114848;28;19912;-71
2022/04/11 09:49:13;;;;;;;;;;;27.10;45.50;;;;;;5121340;28;20293;-71
2022/04/11 09:51:57;;;;;;;;;;;27.40;47.20;;;;;;5121220;28;19915;-71
2022/04/11 09:54:25;;;;;;;;;;;27.90;45.00;;;;;;5113900;28;19908;-71
2022/04/11 09:56:51;;;;;;;;;;;28.20;43.50;;;;;;5107835;28;19915;-71
2022/04/11 09:59:18;;;;;;;;;;;28.30;42.20;;;;;;5117215;28;20350;-71
2022/04/11 10:01:44;;;;;;;;;;;28.50;43.60;;;;;;5120859;28;19915;-71
2022/04/11 10:04:10;;;;;;;;;;;28.70;45.60;;;;;;5121142;28;19965;-70
2022/04/11 10:06:36;;;;;;;;;;;28.90;44.80;;;;;;5120470;28;20327;-71
2022/04/11 10:09:02;;;;;;;;;;;29.20;44.50;;;;;;5116119;28;19912;-71
2022/04/11 10:11:28;;;;;;;;;;;29.50;43.40;;;;;;5120908;28;19915;-70
2022/04/11 10:13:55;;;;;;;;;;;29.80;42.70;;;;;;5113813;28;20394;-70
2022/04/11 10:16:22;;;;;;;;;;;30.10;43.40;;;;;;5119825;28;19916;-71
2022/04/11 10:18:52;;;;;;;;;;;30.20;42.90;;;;;;5119019;28;19912;-71
2022/04/11 10:21:17;;;;;;;;;;;30.30;40.80;;;;;;5111930;28;19958;-71
2022/04/11 10:23:59;;;;;;;;;;;30.40;42.40;;;;;;5120608;28;19907;-71
2022/04/11 10:26:26;;;;;;;;;;;30.50;43.00;;;;;;5097067;28;19923;-71
2022/04/11 10:28:52;;;;;;;;;;;30.60;41.60;;;;;;5105571;28;20424;-71
2022/04/11 10:31:18;;;;;;;;;;;30.60;41.90;;;;;;5102732;28;19924;-71
2022/04/11 10:33:50;;;;;;;;;;;30.50;39.40;;;;;;5120749;28;20369;-70
2022/04/11 10:36:36;;;;;;;;;;;30.60;42.30;;;;;;5111632;28;19912;-71
2022/04/11 10:39:17;;;;;;;;;;;30.70;42.30;;;;;;5112098;28;19955;-70
2022/04/11 10:41:58;;;;;;;;;;;30.80;40.30;;;;;;5098591;28;19919;-70
2022/04/11 10:44:31;;;;;;;;;;;30.80;40.90;;;;;;5104511;28;19908;-72
2022/04/11 10:47:12;;;;;;;;;;;30.70;40.90;;;;;;5113802;28;19916;-72
2022/04/11 10:49:56;;;;;;;;;;;30.80;43.30;;;;;;5100990;28;19919;-75
2022/04/11 10:55:03;;;;;;;;;;;31.00;41.30;;;;;;5117181;28;19920;-77
2022/04/11 10:57:34;;;;;;;;;;;31.20;41.60;;;;;;5113913;28;19926;-75
2022/04/11 11:00:06;;;;;;;;;;;31.40;41.20;;;;;;5116596;28;20278;-75
2022/04/11 11:02:51;;;;;;;;;;;31.50;40.90;;;;;;5088635;28;19922;-74
2022/04/11 11:05:24;;;;;;;;;;;31.70;42.00;;;;;;5103451;28;19943;-74
2022/04/11 11:08:10;;;;;;;;;;;32.00;44.00;;;;;;5093046;28;20381;-73
2022/04/11 11:10:46;;;;;;;;;;;32.20;42.00;;;;;;5114683;28;19908;-75
2022/04/11 11:13:27;;;;;;;;;;;32.30;42.10;;;;;;5114869;28;19982;-75
2022/04/11 11:15:54;;;;;;;;;;;32.50;42.60;;;;;;5092822;28;19935;-74
2022/04/11 11:18:20;;;;;;;;;;;32.60;41.40;;;;;;5105599;28;20342;-73
2022/04/11 11:20:53;;;;;;;;;;;32.70;41.50;;;;;;5112447;28;19962;-74
2022/04/11 11:23:23;;;;;;;;;;;32.70;40.40;;;;;;5117130;28;19912;-73
2022/04/11 11:25:49;;;;;;;;;;;32.60;39.10;;;;;;5114215;28;19912;-73
2022/04/11 11:28:15;;;;;;;;;;;32.40;39.40;;;;;;5119746;28;19947;-73
2022/04/11 11:30:41;;;;;;;;;;;32.40;40.10;;;;;;5119668;28;19919;-71
2022/04/11 11:33:08;;;;;;;;;;;32.30;40.90;;;;;;5108861;28;19924;-73
2022/04/11 11:35:34;;;;;;;;;;;32.10;40.80;;;;;;5102326;28;20338;-74
2022/04/11 11:38:03;;;;;;;;;;;31.70;40.60;;;;;;5112522;28;20019;-73
2022/04/11 11:40:29;;;;;;;;;;;31.40;39.80;;;;;;5102291;28;19912;-71
2022/04/11 11:42:56;;;;;;;;;;;30.80;40.10;;;;;;5108559;28;19915;-70
2022/04/11 11:45:26;;;;;;;;;;;30.50;41.10;;;;;;5092500;28;19999;-72
2022/04/11 11:47:52;;;;;;;;;;;30.30;41.10;;;;;;5099333;28;19916;-71
2022/04/11 11:50:18;;;;;;;;;;;30.20;41.50;;;;;;5119011;28;19922;-71
2022/04/11 11:52:55;;;;;;;;;;;30.20;42.50;;;;;;5109893;28;19975;-72
2022/04/11 11:55:21;;;;;;;;;;;30.20;41.50;;;;;;5101581;28;19912;-72
2022/04/11 11:57:47;;;;;;;;;;;30.20;42.20;;;;;;5110979;28;19908;-71
2022/04/11 12:00:13;;;;;;;;;;;30.20;40.90;;;;;;5105173;28;19915;-70
2022/04/11 12:05:28;;;;;;;;;;;30.00;42.90;;;;;;5099141;28;20423;-70
2022/04/11 12:08:02;;;;;;;;;;;30.10;43.00;;;;;;5105730;28;19923;-71
2022/04/11 12:10:29;;;;;;;;;;;30.10;41.90;;;;;;5100716;28;19908;-70
2022/04/11 12:12:54;;;;;;;;;;;30.00;42.40;;;;;;5114674;28;19908;-71
2022/04/11 12:15:20;;;;;;;;;;;29.80;42.00;;;;;;5101637;28;19992;-72
2022/04/11 12:17:47;;;;;;;;;;;29.30;42.30;;;;;;5103993;28;19912;-72
2022/04/11 12:20:17;;;;;;;;;;;28.90;42.30;;;;;;5092403;28;19912;-72
2022/04/11 12:23:01;;;;;;;;;;;28.60;42.80;;;;;;5096127;28;19947;-73
2022/04/11 12:25:28;;;;;;;;;;;28.30;43.50;;;;;;5094050;28;20043;-70
2022/04/11 12:28:12;;;;;;;;;;;28.00;42.90;;;;;;5096914;28;20397;-72
2022/04/11 12:30:41;;;;;;;;;;;27.80;44.40;;;;;;5102001;28;19919;-72
2022/04/11 12:33:07;;;;;;;;;;;27.50;45.00;;;;;;5096498;28;19920;-71
2022/04/11 12:35:35;;;;;;;;;;;27.50;45.60;;;;;;5099650;28;19952;-70
2022/04/11 12:38:07;;;;;;;;;;;27.30;44.00;;;;;;5101605;28;20282;-71
2022/04/11 12:40:45;;;;;;;;;;;27.10;45.00;;;;;;5105641;28;19915;-71
2022/04/11 12:43:12;;;;;;;;;;;27.10;45.60;;;;;;5097528;28;19908;-71
2022/04/11 12:45:38;;;;;;;;;;;27.10;46.30;;;;;;5111869;28;19912;-71
2022/04/11 12:48:05;;;;;;;;;;;27.00;46.50;;;;;;5097229;28;19912;-71
2022/04/11 12:50:31;;;;;;;;;;;26.90;45.30;;;;;;5112239;28;19998;-71
2022/04/11 12:52:57;;;;;;;;;;;26.80;45.20;;;;;;5118522;28;19908;-71
2022/04/11 12:55:26;;;;;;;;;;;26.70;46.10;;;;;;5112759;28;20274;-71
2022/04/11 12:58:03;;;;;;;;;;;26.70;46.70;;;;;;5111521;28;20331;-71
2022/04/11 13:00:29;;;;;;;;;;;26.70;46.10;;;;;;5091088;28;19934;-71
2022/04/11 13:02:56;;;;;;;;;;;26.60;46.50;;;;;;5084942;28;19908;-71
2022/04/11 13:05:22;;;;;;;;;;;26.40;46.50;;;;;;5110866;28;19907;-71
2022/04/11 13:07:49;;;;;;;;;;;26.20;47.10;;;;;;5117805;28;19912;-71
2022/04/11 13:10:15;;;;;;;;;;;26.10;47.20;;;;;;5117464;28;19911;-71
2022/04/11 13:12:40;;;;;;;;;;;26.00;46.60;;;;;;5117872;28;19933;-72
2022/04/11 13:15:07;;;;;;;;;;;25.80;47.30;;;;;;5112145;28;19912;-71
2022/04/11 13:20:18;;;;;;;;;;;25.70;48.30;;;;;;5110392;28;19919;-71
2022/04/11 13:22:43;;;;;;;;;;;25.60;47.90;;;;;;5117764;28;19964;-70
2022/04/11 13:25:09;;;;;;;;;;;25.70;48.20;;;;;;5118104;28;20270;-70
2022/04/11 13:27:35;;;;;;;;;;;25.60;48.20;;;;;;5117808;28;20370;-70
2022/04/11 13:30:01;;;;;;;;;;;25.70;48.90;;;;;;5117483;28;19908;-71
2022/04/11 13:32:26;;;;;;;;;;;25.60;48.30;;;;;;5067517;28;20302;-71
2022/04/11 13:34:52;;;;;;;;;;;25.60;48.70;;;;;;5092366;28;19916;-71
2022/04/11 13:37:18;;;;;;;;;;;25.60;48.60;;;;;;5095955;28;20391;-72
2022/04/11 13:39:44;;;;;;;;;;;25.50;48.40;;;;;;5096513;28;19912;-71
2022/04/11 13:42:10;;;;;;;;;;;25.50;48.80;;;;;;5101238;28;20271;-73
2022/04/11 13:44:35;;;;;;;;;;;25.50;48.80;;;;;;5068732;28;19970;-72
2022/04/11 13:47:01;;;;;;;;;;;25.30;48.70;;;;;;5100635;28;19931;-73
2022/04/11 13:49:26;;;;;;;;;;;25.30;48.10;;;;;;5100450;28;20441;-72
2022/04/11 13:51:52;;;;;;;;;;;25.20;48.60;;;;;;5109885;28;20385;-72
2022/04/11 13:54:18;;;;;;;;;;;25.20;48.60;;;;;;5111279;28;19962;-71
2022/04/11 13:56:43;;;;;;;;;;;25.30;49.20;;;;;;5100488;28;19930;-71
2022/04/11 13:59:10;;;;;;;;;;;25.20;48.70;;;;;;5110343;28;19908;-80
2022/04/11 14:01:36;;;;;;;;;;;25.20;48.50;;;;;;5105500;28;19920;-74
2022/04/11 14:04:03;;;;;;;;;;;25.00;48.70;;;;;;5104174;28;20281;-73
2022/04/11 14:06:28;;;;;;;;;;;24.80;49.00;;;;;;5096009;28;20023;-73
2022/04/11 14:08:54;;;;;;;;;;;24.70;49.00;;;;;;5097245;28;19981;-73
2022/04/11 14:11:20;;;;;;;;;;;24.60;49.20;;;;;;5104579;28;19918;-73
2022/04/11 14:13:45;;;;;;;;;;;24.40;49.80;;;;;;5110437;28;19912;-74
2022/04/11 14:16:11;;;;;;;;;;;24.20;49.60;;;;;;5110883;28;19912;-74
2022/04/11 14:18:37;;;;;;;;;;;24.00;50.20;;;;;;5111630;28;19919;-74
2022/04/11 14:21:02;;;;;;;;;;;23.90;50.40;;;;;;5111346;28;19919;-73
2022/04/11 14:23:29;;;;;;;;;;;23.80;50.70;;;;;;5103497;28;19943;-74
2022/04/11 14:25:55;;;;;;;;;;;23.70;50.90;;;;;;5112337;28;19907;-75
2022/04/11 14:28:21;;;;;;;;;;;23.70;50.90;;;;;;5110974;28;19939;-74
2022/04/11 14:30:48;;;;;;;;;;;23.60;50.90;;;;;;5111038;28;19912;-73